< < Back
Terminal Aerodrome Forecast


Current Version              Previous Versions:   1  2  3  4  5  6  7  8  9  

Terminal Aerodrome Forecast

293
FTUS44 KBMX 262300
TAFTCL
TAF
KTCL 262326Z 2700/2724 19008KT P6SM BKN120
     FM270400 26009KT P6SM SCT100
     FM271400 32010G18KT P6SM BKN035=



Latest METAR

350
SAUS70 KWBC 270300 RRJ
MTRTCL
METAR KTCL 270253Z AUTO 33010G20KT 10SM BKN095 12/M01 A3015 RMK AO2
SLP209 T01221006 53030


USA.gov is the U.S. government's official web portal to all federal, state and local government web resources and services.